sensor_id;sensor_type;location;lat;lon;timestamp;P1;durP1;ratioP1;P2;durP2;ratioP2
20988;SDS011;10653;47.052;15.410;2022-07-17T00:00:37;5.30;;;4.40;;
20988;SDS011;10653;47.052;15.410;2022-07-17T00:03:10;5.87;;;5.27;;
20988;SDS011;10653;47.052;15.410;2022-07-17T00:05:36;4.87;;;4.40;;
20988;SDS011;10653;47.052;15.410;2022-07-17T00:08:03;5.23;;;4.73;;
20988;SDS011;10653;47.052;15.410;2022-07-17T00:10:29;5.07;;;4.57;;
20988;SDS011;10653;47.052;15.410;2022-07-17T00:12:55;5.27;;;4.50;;
20988;SDS011;10653;47.052;15.410;2022-07-17T00:15:22;5.90;;;5.40;;
20988;SDS011;10653;47.052;15.410;2022-07-17T00:17:48;4.90;;;4.50;;
20988;SDS011;10653;47.052;15.410;2022-07-17T00:20:14;5.53;;;4.97;;
20988;SDS011;10653;47.052;15.410;2022-07-17T00:22:40;5.57;;;4.90;;
20988;SDS011;10653;47.052;15.410;2022-07-17T00:25:08;5.30;;;4.70;;
20988;SDS011;10653;47.052;15.410;2022-07-17T00:27:34;5.50;;;4.87;;
20988;SDS011;10653;47.052;15.410;2022-07-17T00:30:01;6.60;;;4.80;;
20988;SDS011;10653;47.052;15.410;2022-07-17T00:32:27;5.10;;;4.70;;
20988;SDS011;10653;47.052;15.410;2022-07-17T00:34:53;7.83;;;6.83;;
20988;SDS011;10653;47.052;15.410;2022-07-17T00:37:19;6.73;;;6.03;;
20988;SDS011;10653;47.052;15.410;2022-07-17T00:39:45;9.43;;;8.27;;
20988;SDS011;10653;47.052;15.410;2022-07-17T00:42:11;6.47;;;5.87;;
20988;SDS011;10653;47.052;15.410;2022-07-17T00:44:38;6.00;;;5.07;;
20988;SDS011;10653;47.052;15.410;2022-07-17T00:47:09;8.80;;;6.67;;
20988;SDS011;10653;47.052;15.410;2022-07-17T00:49:35;6.57;;;5.97;;
20988;SDS011;10653;47.052;15.410;2022-07-17T00:52:01;5.33;;;4.60;;
20988;SDS011;10653;47.052;15.410;2022-07-17T00:54:27;6.07;;;5.47;;
20988;SDS011;10653;47.052;15.410;2022-07-17T00:56:53;12.77;;;11.63;;
20988;SDS011;10653;47.052;15.410;2022-07-17T00:59:20;8.73;;;6.03;;
20988;SDS011;10653;47.052;15.410;2022-07-17T01:01:47;5.80;;;5.30;;
20988;SDS011;10653;47.052;15.410;2022-07-17T01:04:13;7.60;;;5.90;;
20988;SDS011;10653;47.052;15.410;2022-07-17T01:06:39;5.83;;;5.43;;
20988;SDS011;10653;47.052;15.410;2022-07-17T01:09:05;5.57;;;5.13;;
20988;SDS011;10653;47.052;15.410;2022-07-17T01:11:35;6.77;;;5.57;;
20988;SDS011;10653;47.052;15.410;2022-07-17T01:14:01;6.30;;;5.70;;
20988;SDS011;10653;47.052;15.410;2022-07-17T01:16:27;5.73;;;5.30;;
20988;SDS011;10653;47.052;15.410;2022-07-17T01:18:54;5.80;;;5.10;;
20988;SDS011;10653;47.052;15.410;2022-07-17T01:21:20;6.87;;;6.27;;
20988;SDS011;10653;47.052;15.410;2022-07-17T01:23:46;5.90;;;5.30;;
20988;SDS011;10653;47.052;15.410;2022-07-17T01:26:12;5.83;;;5.33;;
20988;SDS011;10653;47.052;15.410;2022-07-17T01:28:38;6.20;;;5.67;;
20988;SDS011;10653;47.052;15.410;2022-07-17T01:31:04;5.70;;;5.07;;
20988;SDS011;10653;47.052;15.410;2022-07-17T01:33:30;10.80;;;9.27;;
20988;SDS011;10653;47.052;15.410;2022-07-17T01:35:56;7.83;;;7.07;;
20988;SDS011;10653;47.052;15.410;2022-07-17T01:38:22;8.50;;;6.40;;
20988;SDS011;10653;47.052;15.410;2022-07-17T01:40:48;7.20;;;5.83;;
20988;SDS011;10653;47.052;15.410;2022-07-17T01:43:16;7.73;;;7.10;;
20988;SDS011;10653;47.052;15.410;2022-07-17T01:45:42;12.03;;;9.70;;
20988;SDS011;10653;47.052;15.410;2022-07-17T01:48:08;10.80;;;8.10;;
20988;SDS011;10653;47.052;15.410;2022-07-17T01:50:34;6.40;;;5.80;;
20988;SDS011;10653;47.052;15.410;2022-07-17T01:53:00;18.67;;;11.97;;
20988;SDS011;10653;47.052;15.410;2022-07-17T01:55:26;7.30;;;6.60;;
20988;SDS011;10653;47.052;15.410;2022-07-17T01:57:52;7.10;;;5.93;;
20988;SDS011;10653;47.052;15.410;2022-07-17T02:00:18;8.07;;;5.93;;
20988;SDS011;10653;47.052;15.410;2022-07-17T02:02:47;8.53;;;6.93;;
20988;SDS011;10653;47.052;15.410;2022-07-17T02:05:13;5.80;;;5.30;;
20988;SDS011;10653;47.052;15.410;2022-07-17T02:07:40;5.97;;;5.47;;
20988;SDS011;10653;47.052;15.410;2022-07-17T02:10:07;6.70;;;6.10;;
20988;SDS011;10653;47.052;15.410;2022-07-17T02:12:33;7.30;;;6.60;;
20988;SDS011;10653;47.052;15.410;2022-07-17T02:14:59;6.80;;;6.10;;
20988;SDS011;10653;47.052;15.410;2022-07-17T02:17:25;6.57;;;5.97;;
20988;SDS011;10653;47.052;15.410;2022-07-17T02:19:51;5.73;;;5.23;;
20988;SDS011;10653;47.052;15.410;2022-07-17T02:22:17;6.47;;;5.73;;
20988;SDS011;10653;47.052;15.410;2022-07-17T02:24:43;6.90;;;6.00;;
20988;SDS011;10653;47.052;15.410;2022-07-17T02:27:09;6.23;;;5.73;;
20988;SDS011;10653;47.052;15.410;2022-07-17T02:29:35;7.33;;;6.60;;
20988;SDS011;10653;47.052;15.410;2022-07-17T02:32:01;6.30;;;5.70;;
20988;SDS011;10653;47.052;15.410;2022-07-17T02:34:27;6.97;;;6.10;;
20988;SDS011;10653;47.052;15.410;2022-07-17T02:36:53;6.07;;;5.40;;
20988;SDS011;10653;47.052;15.410;2022-07-17T02:39:19;6.73;;;6.13;;
20988;SDS011;10653;47.052;15.410;2022-07-17T02:41:45;7.40;;;6.77;;
20988;SDS011;10653;47.052;15.410;2022-07-17T02:44:11;8.77;;;7.27;;
20988;SDS011;10653;47.052;15.410;2022-07-17T02:46:37;9.73;;;8.20;;
20988;SDS011;10653;47.052;15.410;2022-07-17T02:49:03;8.07;;;6.60;;
20988;SDS011;10653;47.052;15.410;2022-07-17T02:51:29;6.53;;;5.87;;
20988;SDS011;10653;47.052;15.410;2022-07-17T02:53:55;8.20;;;6.13;;
20988;SDS011;10653;47.052;15.410;2022-07-17T02:56:21;6.63;;;5.97;;
20988;SDS011;10653;47.052;15.410;2022-07-17T02:58:47;7.63;;;6.07;;
20988;SDS011;10653;47.052;15.410;2022-07-17T03:01:13;6.97;;;5.93;;
20988;SDS011;10653;47.052;15.410;2022-07-17T03:03:39;7.53;;;6.73;;
20988;SDS011;10653;47.052;15.410;2022-07-17T03:06:06;7.13;;;6.43;;
20988;SDS011;10653;47.052;15.410;2022-07-17T03:08:32;6.77;;;6.17;;
20988;SDS011;10653;47.052;15.410;2022-07-17T03:10:58;6.20;;;5.60;;
20988;SDS011;10653;47.052;15.410;2022-07-17T03:13:24;6.63;;;6.03;;
20988;SDS011;10653;47.052;15.410;2022-07-17T03:15:50;6.63;;;6.03;;
20988;SDS011;10653;47.052;15.410;2022-07-17T03:18:16;7.03;;;6.33;;
20988;SDS011;10653;47.052;15.410;2022-07-17T03:20:42;8.63;;;6.57;;
20988;SDS011;10653;47.052;15.410;2022-07-17T03:23:08;6.20;;;5.60;;
20988;SDS011;10653;47.052;15.410;2022-07-17T03:25:34;7.33;;;5.87;;
20988;SDS011;10653;47.052;15.410;2022-07-17T03:28:00;7.50;;;6.90;;
20988;SDS011;10653;47.052;15.410;2022-07-17T03:30:26;7.37;;;6.50;;
20988;SDS011;10653;47.052;15.410;2022-07-17T03:32:52;6.00;;;5.40;;
20988;SDS011;10653;47.052;15.410;2022-07-17T03:35:18;6.93;;;5.80;;
20988;SDS011;10653;47.052;15.410;2022-07-17T03:37:44;6.00;;;5.43;;
20988;SDS011;10653;47.052;15.410;2022-07-17T03:40:10;6.20;;;5.60;;
20988;SDS011;10653;47.052;15.410;2022-07-17T03:42:37;7.23;;;6.60;;
20988;SDS011;10653;47.052;15.410;2022-07-17T03:45:03;7.40;;;6.70;;
20988;SDS011;10653;47.052;15.410;2022-07-17T03:47:29;7.57;;;6.67;;
20988;SDS011;10653;47.052;15.410;2022-07-17T03:49:55;7.03;;;6.33;;
20988;SDS011;10653;47.052;15.410;2022-07-17T03:52:21;11.93;;;7.07;;
20988;SDS011;10653;47.052;15.410;2022-07-17T03:54:47;6.73;;;6.17;;
20988;SDS011;10653;47.052;15.410;2022-07-17T03:57:13;7.70;;;6.70;;
20988;SDS011;10653;47.052;15.410;2022-07-17T03:59:39;9.30;;;6.70;;
20988;SDS011;10653;47.052;15.410;2022-07-17T04:02:05;7.13;;;6.20;;
20988;SDS011;10653;47.052;15.410;2022-07-17T04:04:31;8.87;;;6.73;;
20988;SDS011;10653;47.052;15.410;2022-07-17T04:06:57;8.63;;;7.77;;
20988;SDS011;10653;47.052;15.410;2022-07-17T04:09:23;8.07;;;6.70;;
20988;SDS011;10653;47.052;15.410;2022-07-17T04:11:49;7.27;;;6.50;;
20988;SDS011;10653;47.052;15.410;2022-07-17T04:14:15;6.90;;;6.30;;
20988;SDS011;10653;47.052;15.410;2022-07-17T04:16:41;7.43;;;6.20;;
20988;SDS011;10653;47.052;15.410;2022-07-17T04:19:07;6.90;;;6.30;;
20988;SDS011;10653;47.052;15.410;2022-07-17T04:21:33;6.30;;;5.70;;
20988;SDS011;10653;47.052;15.410;2022-07-17T04:23:59;6.10;;;5.43;;
20988;SDS011;10653;47.052;15.410;2022-07-17T04:26:25;6.13;;;4.27;;
20988;SDS011;10653;47.052;15.410;2022-07-17T04:28:51;4.50;;;4.10;;
20988;SDS011;10653;47.052;15.410;2022-07-17T04:31:17;4.30;;;3.67;;
20988;SDS011;10653;47.052;15.410;2022-07-17T04:33:43;3.60;;;3.30;;
20988;SDS011;10653;47.052;15.410;2022-07-17T04:36:09;4.43;;;4.00;;
20988;SDS011;10653;47.052;15.410;2022-07-17T04:38:35;3.50;;;3.20;;
20988;SDS011;10653;47.052;15.410;2022-07-17T04:41:01;4.37;;;2.90;;
20988;SDS011;10653;47.052;15.410;2022-07-17T04:43:27;3.33;;;3.03;;
20988;SDS011;10653;47.052;15.410;2022-07-17T04:45:53;3.87;;;2.53;;
20988;SDS011;10653;47.052;15.410;2022-07-17T04:48:19;3.10;;;2.80;;
20988;SDS011;10653;47.052;15.410;2022-07-17T04:50:45;3.40;;;3.00;;
20988;SDS011;10653;47.052;15.410;2022-07-17T04:53:11;3.17;;;2.87;;
20988;SDS011;10653;47.052;15.410;2022-07-17T04:55:37;3.30;;;3.00;;
20988;SDS011;10653;47.052;15.410;2022-07-17T04:58:03;2.53;;;2.33;;
20988;SDS011;10653;47.052;15.410;2022-07-17T05:00:29;4.30;;;2.90;;
20988;SDS011;10653;47.052;15.410;2022-07-17T05:02:55;5.03;;;3.20;;
20988;SDS011;10653;47.052;15.410;2022-07-17T05:05:21;3.80;;;3.50;;
20988;SDS011;10653;47.052;15.410;2022-07-17T05:07:47;3.40;;;3.10;;
20988;SDS011;10653;47.052;15.410;2022-07-17T05:10:14;3.33;;;3.07;;
20988;SDS011;10653;47.052;15.410;2022-07-17T05:12:40;4.13;;;3.43;;
20988;SDS011;10653;47.052;15.410;2022-07-17T05:15:06;6.77;;;4.00;;
20988;SDS011;10653;47.052;15.410;2022-07-17T05:17:32;3.73;;;3.43;;
20988;SDS011;10653;47.052;15.410;2022-07-17T05:19:58;6.60;;;4.50;;
20988;SDS011;10653;47.052;15.410;2022-07-17T05:22:24;4.47;;;3.97;;
20988;SDS011;10653;47.052;15.410;2022-07-17T05:24:50;3.70;;;3.40;;
20988;SDS011;10653;47.052;15.410;2022-07-17T05:27:16;4.40;;;4.00;;
20988;SDS011;10653;47.052;15.410;2022-07-17T05:29:42;6.83;;;3.50;;
20988;SDS011;10653;47.052;15.410;2022-07-17T05:32:08;3.87;;;3.57;;
20988;SDS011;10653;47.052;15.410;2022-07-17T05:34:34;4.33;;;3.17;;
20988;SDS011;10653;47.052;15.410;2022-07-17T05:37:00;4.40;;;3.43;;
20988;SDS011;10653;47.052;15.410;2022-07-17T05:39:26;2.40;;;2.20;;
20988;SDS011;10653;47.052;15.410;2022-07-17T05:41:52;4.77;;;2.53;;
20988;SDS011;10653;47.052;15.410;2022-07-17T05:44:18;3.00;;;2.20;;
20988;SDS011;10653;47.052;15.410;2022-07-17T05:46:44;3.60;;;2.37;;
20988;SDS011;10653;47.052;15.410;2022-07-17T05:49:10;1.97;;;1.87;;
20988;SDS011;10653;47.052;15.410;2022-07-17T05:51:36;2.50;;;2.30;;
20988;SDS011;10653;47.052;15.410;2022-07-17T05:54:02;2.57;;;2.27;;
20988;SDS011;10653;47.052;15.410;2022-07-17T05:56:28;2.60;;;1.90;;
20988;SDS011;10653;47.052;15.410;2022-07-17T05:58:54;5.57;;;2.03;;
20988;SDS011;10653;47.052;15.410;2022-07-17T06:01:20;2.50;;;1.57;;
20988;SDS011;10653;47.052;15.410;2022-07-17T06:03:46;2.23;;;1.60;;
20988;SDS011;10653;47.052;15.410;2022-07-17T06:06:12;2.70;;;2.20;;
20988;SDS011;10653;47.052;15.410;2022-07-17T06:08:38;1.90;;;1.73;;
20988;SDS011;10653;47.052;15.410;2022-07-17T06:11:04;2.03;;;1.60;;
20988;SDS011;10653;47.052;15.410;2022-07-17T06:13:30;2.97;;;2.00;;
20988;SDS011;10653;47.052;15.410;2022-07-17T06:15:56;1.73;;;1.40;;
20988;SDS011;10653;47.052;15.410;2022-07-17T06:18:24;3.20;;;1.80;;
20988;SDS011;10653;47.052;15.410;2022-07-17T06:20:50;3.00;;;2.27;;
20988;SDS011;10653;47.052;15.410;2022-07-17T06:23:16;2.43;;;1.50;;
20988;SDS011;10653;47.052;15.410;2022-07-17T06:25:42;1.60;;;1.50;;
20988;SDS011;10653;47.052;15.410;2022-07-17T06:28:08;2.50;;;1.53;;
20988;SDS011;10653;47.052;15.410;2022-07-17T06:30:34;1.50;;;1.40;;
20988;SDS011;10653;47.052;15.410;2022-07-17T06:33:01;1.63;;;1.53;;
20988;SDS011;10653;47.052;15.410;2022-07-17T06:35:26;2.13;;;1.93;;
20988;SDS011;10653;47.052;15.410;2022-07-17T06:37:55;1.23;;;1.10;;
20988;SDS011;10653;47.052;15.410;2022-07-17T06:40:21;2.03;;;1.70;;
20988;SDS011;10653;47.052;15.410;2022-07-17T06:42:47;2.27;;;1.50;;
20988;SDS011;10653;47.052;15.410;2022-07-17T06:45:13;5.87;;;1.70;;
20988;SDS011;10653;47.052;15.410;2022-07-17T06:47:39;2.93;;;2.00;;
20988;SDS011;10653;47.052;15.410;2022-07-17T06:50:05;3.27;;;1.70;;
20988;SDS011;10653;47.052;15.410;2022-07-17T06:52:32;2.30;;;1.90;;
20988;SDS011;10653;47.052;15.410;2022-07-17T06:54:58;2.47;;;1.60;;
20988;SDS011;10653;47.052;15.410;2022-07-17T06:57:24;2.10;;;1.90;;
20988;SDS011;10653;47.052;15.410;2022-07-17T06:59:50;5.67;;;2.10;;
20988;SDS011;10653;47.052;15.410;2022-07-17T07:02:16;2.33;;;2.13;;
20988;SDS011;10653;47.052;15.410;2022-07-17T07:04:42;3.80;;;2.10;;
20988;SDS011;10653;47.052;15.410;2022-07-17T07:07:08;4.40;;;2.00;;
20988;SDS011;10653;47.052;15.410;2022-07-17T07:09:34;1.77;;;1.60;;
20988;SDS011;10653;47.052;15.410;2022-07-17T07:12:01;2.23;;;1.77;;
20988;SDS011;10653;47.052;15.410;2022-07-17T07:14:27;4.00;;;2.23;;
20988;SDS011;10653;47.052;15.410;2022-07-17T07:16:53;2.00;;;1.80;;
20988;SDS011;10653;47.052;15.410;2022-07-17T07:19:19;2.97;;;1.90;;
20988;SDS011;10653;47.052;15.410;2022-07-17T07:21:45;2.10;;;1.90;;
20988;SDS011;10653;47.052;15.410;2022-07-17T07:24:11;2.30;;;1.87;;
20988;SDS011;10653;47.052;15.410;2022-07-17T07:26:37;2.63;;;1.90;;
20988;SDS011;10653;47.052;15.410;2022-07-17T07:29:03;3.57;;;1.57;;
20988;SDS011;10653;47.052;15.410;2022-07-17T07:31:29;1.70;;;1.60;;
20988;SDS011;10653;47.052;15.410;2022-07-17T07:33:55;2.60;;;2.20;;
20988;SDS011;10653;47.052;15.410;2022-07-17T07:36:21;2.00;;;1.83;;
20988;SDS011;10653;47.052;15.410;2022-07-17T07:38:47;3.53;;;1.83;;
20988;SDS011;10653;47.052;15.410;2022-07-17T07:41:13;3.90;;;2.20;;
20988;SDS011;10653;47.052;15.410;2022-07-17T07:43:39;3.07;;;2.07;;
20988;SDS011;10653;47.052;15.410;2022-07-17T07:46:05;2.07;;;1.87;;
20988;SDS011;10653;47.052;15.410;2022-07-17T07:48:31;2.23;;;1.60;;
20988;SDS011;10653;47.052;15.410;2022-07-17T07:50:57;2.37;;;1.77;;
20988;SDS011;10653;47.052;15.410;2022-07-17T07:53:23;3.90;;;1.90;;
20988;SDS011;10653;47.052;15.410;2022-07-17T07:55:49;2.67;;;2.10;;
20988;SDS011;10653;47.052;15.410;2022-07-17T07:58:15;2.20;;;1.97;;
20988;SDS011;10653;47.052;15.410;2022-07-17T08:00:43;2.10;;;1.97;;
20988;SDS011;10653;47.052;15.410;2022-07-17T08:03:09;3.07;;;2.07;;
20988;SDS011;10653;47.052;15.410;2022-07-17T08:05:36;2.10;;;1.90;;
20988;SDS011;10653;47.052;15.410;2022-07-17T08:08:02;2.97;;;2.40;;
20988;SDS011;10653;47.052;15.410;2022-07-17T08:10:28;2.43;;;1.90;;
20988;SDS011;10653;47.052;15.410;2022-07-17T08:12:54;2.47;;;2.03;;
20988;SDS011;10653;47.052;15.410;2022-07-17T08:15:21;3.20;;;2.10;;
20988;SDS011;10653;47.052;15.410;2022-07-17T08:17:47;1.63;;;1.53;;
20988;SDS011;10653;47.052;15.410;2022-07-17T08:20:14;1.70;;;1.60;;
20988;SDS011;10653;47.052;15.410;2022-07-17T08:22:43;1.50;;;1.40;;
20988;SDS011;10653;47.052;15.410;2022-07-17T08:25:10;1.80;;;1.70;;
20988;SDS011;10653;47.052;15.410;2022-07-17T08:27:39;2.40;;;1.70;;
20988;SDS011;10653;47.052;15.410;2022-07-17T08:30:06;2.87;;;2.13;;
20988;SDS011;10653;47.052;15.410;2022-07-17T08:32:33;3.13;;;2.00;;
20988;SDS011;10653;47.052;15.410;2022-07-17T08:34:59;4.60;;;2.13;;
20988;SDS011;10653;47.052;15.410;2022-07-17T08:37:26;3.87;;;2.13;;
20988;SDS011;10653;47.052;15.410;2022-07-17T08:39:52;3.00;;;2.27;;
20988;SDS011;10653;47.052;15.410;2022-07-17T08:42:18;1.93;;;1.70;;
20988;SDS011;10653;47.052;15.410;2022-07-17T08:44:44;2.10;;;2.00;;
20988;SDS011;10653;47.052;15.410;2022-07-17T08:47:11;2.20;;;2.00;;
20988;SDS011;10653;47.052;15.410;2022-07-17T08:49:38;2.63;;;2.27;;
20988;SDS011;10653;47.052;15.410;2022-07-17T08:52:06;2.17;;;1.93;;
20988;SDS011;10653;47.052;15.410;2022-07-17T08:54:32;1.97;;;1.87;;
20988;SDS011;10653;47.052;15.410;2022-07-17T08:56:58;2.40;;;2.13;;
20988;SDS011;10653;47.052;15.410;2022-07-17T08:59:25;3.97;;;2.17;;
20988;SDS011;10653;47.052;15.410;2022-07-17T09:01:51;2.47;;;2.23;;
20988;SDS011;10653;47.052;15.410;2022-07-17T09:04:17;3.00;;;2.20;;
20988;SDS011;10653;47.052;15.410;2022-07-17T09:06:43;5.40;;;2.50;;
20988;SDS011;10653;47.052;15.410;2022-07-17T09:09:12;2.27;;;1.87;;
20988;SDS011;10653;47.052;15.410;2022-07-17T09:11:41;3.27;;;2.20;;
20988;SDS011;10653;47.052;15.410;2022-07-17T09:14:08;2.27;;;1.57;;
20988;SDS011;10653;47.052;15.410;2022-07-17T09:16:34;2.03;;;1.83;;
20988;SDS011;10653;47.052;15.410;2022-07-17T09:19:01;2.03;;;1.83;;
20988;SDS011;10653;47.052;15.410;2022-07-17T09:21:28;3.53;;;1.90;;
20988;SDS011;10653;47.052;15.410;2022-07-17T09:24:04;2.10;;;2.00;;
20988;SDS011;10653;47.052;15.410;2022-07-17T09:26:32;4.70;;;2.10;;
20988;SDS011;10653;47.052;15.410;2022-07-17T09:29:02;2.03;;;1.83;;
20988;SDS011;10653;47.052;15.410;2022-07-17T09:31:28;2.50;;;2.30;;
20988;SDS011;10653;47.052;15.410;2022-07-17T09:33:55;1.83;;;1.63;;
20988;SDS011;10653;47.052;15.410;2022-07-17T09:36:21;2.73;;;2.20;;
20988;SDS011;10653;47.052;15.410;2022-07-17T09:38:48;2.60;;;2.30;;
20988;SDS011;10653;47.052;15.410;2022-07-17T09:41:18;2.20;;;1.80;;
20988;SDS011;10653;47.052;15.410;2022-07-17T09:43:48;2.43;;;1.90;;
20988;SDS011;10653;47.052;15.410;2022-07-17T09:46:25;4.50;;;1.60;;
20988;SDS011;10653;47.052;15.410;2022-07-17T09:48:55;2.93;;;1.77;;
20988;SDS011;10653;47.052;15.410;2022-07-17T09:51:23;1.93;;;1.83;;
20988;SDS011;10653;47.052;15.410;2022-07-17T09:53:50;5.10;;;2.90;;
20988;SDS011;10653;47.052;15.410;2022-07-17T09:56:18;4.80;;;2.20;;
20988;SDS011;10653;47.052;15.410;2022-07-17T09:58:48;2.30;;;1.70;;
20988;SDS011;10653;47.052;15.410;2022-07-17T10:01:15;2.23;;;2.03;;
20988;SDS011;10653;47.052;15.410;2022-07-17T10:03:42;2.40;;;2.17;;
20988;SDS011;10653;47.052;15.410;2022-07-17T10:06:09;2.07;;;1.77;;
20988;SDS011;10653;47.052;15.410;2022-07-17T10:08:35;2.97;;;1.87;;
20988;SDS011;10653;47.052;15.410;2022-07-17T10:11:02;2.50;;;2.30;;
20988;SDS011;10653;47.052;15.410;2022-07-17T10:13:29;2.40;;;2.20;;
20988;SDS011;10653;47.052;15.410;2022-07-17T10:15:55;2.30;;;2.10;;
20988;SDS011;10653;47.052;15.410;2022-07-17T10:18:21;2.40;;;2.10;;
20988;SDS011;10653;47.052;15.410;2022-07-17T10:21:12;2.70;;;2.30;;
20988;SDS011;10653;47.052;15.410;2022-07-17T10:23:39;3.03;;;2.40;;
20988;SDS011;10653;47.052;15.410;2022-07-17T10:26:06;2.70;;;2.50;;
20988;SDS011;10653;47.052;15.410;2022-07-17T10:29:06;2.53;;;2.33;;
20988;SDS011;10653;47.052;15.410;2022-07-17T10:31:25;2.50;;;2.30;;
20988;SDS011;10653;47.052;15.410;2022-07-17T10:34:09;2.40;;;2.20;;
20988;SDS011;10653;47.052;15.410;2022-07-17T10:36:41;2.43;;;2.23;;
20988;SDS011;10653;47.052;15.410;2022-07-17T10:39:18;2.90;;;2.30;;
20988;SDS011;10653;47.052;15.410;2022-07-17T10:41:58;1.83;;;1.70;;
20988;SDS011;10653;47.052;15.410;2022-07-17T10:44:28;3.23;;;2.10;;
20988;SDS011;10653;47.052;15.410;2022-07-17T10:46:55;3.30;;;2.80;;
20988;SDS011;10653;47.052;15.410;2022-07-17T10:49:22;2.00;;;1.90;;
20988;SDS011;10653;47.052;15.410;2022-07-17T10:51:48;4.77;;;2.80;;
20988;SDS011;10653;47.052;15.410;2022-07-17T10:54:16;3.27;;;2.30;;
20988;SDS011;10653;47.052;15.410;2022-07-17T10:56:42;2.27;;;2.10;;
20988;SDS011;10653;47.052;15.410;2022-07-17T10:59:09;2.60;;;2.40;;
20988;SDS011;10653;47.052;15.410;2022-07-17T11:01:36;2.70;;;2.50;;
20988;SDS011;10653;47.052;15.410;2022-07-17T11:04:02;3.57;;;3.27;;
20988;SDS011;10653;47.052;15.410;2022-07-17T11:11:35;4.63;;;2.70;;
20988;SDS011;10653;47.052;15.410;2022-07-17T11:16:58;3.27;;;2.97;;
20988;SDS011;10653;47.052;15.410;2022-07-17T11:21:56;3.87;;;2.33;;
20988;SDS011;10653;47.052;15.410;2022-07-17T11:24:22;3.30;;;2.63;;
20988;SDS011;10653;47.052;15.410;2022-07-17T11:26:51;2.90;;;2.17;;
20988;SDS011;10653;47.052;15.410;2022-07-17T11:29:18;2.60;;;2.40;;
20988;SDS011;10653;47.052;15.410;2022-07-17T11:31:45;7.83;;;2.63;;
20988;SDS011;10653;47.052;15.410;2022-07-17T11:34:11;2.90;;;2.60;;
20988;SDS011;10653;47.052;15.410;2022-07-17T11:39:07;2.67;;;2.47;;
20988;SDS011;10653;47.052;15.410;2022-07-17T11:41:38;2.27;;;2.07;;
20988;SDS011;10653;47.052;15.410;2022-07-17T11:44:06;2.83;;;2.60;;
20988;SDS011;10653;47.052;15.410;2022-07-17T11:46:32;2.83;;;2.63;;
20988;SDS011;10653;47.052;15.410;2022-07-17T11:48:59;2.57;;;2.37;;
20988;SDS011;10653;47.052;15.410;2022-07-17T11:51:35;5.03;;;2.70;;
20988;SDS011;10653;47.052;15.410;2022-07-17T11:54:05;3.37;;;2.70;;
20988;SDS011;10653;47.052;15.410;2022-07-17T11:56:32;4.33;;;2.67;;
20988;SDS011;10653;47.052;15.410;2022-07-17T11:58:58;2.70;;;2.50;;
20988;SDS011;10653;47.052;15.410;2022-07-17T12:01:27;5.77;;;3.57;;
20988;SDS011;10653;47.052;15.410;2022-07-17T12:03:57;2.93;;;2.20;;
20988;SDS011;10653;47.052;15.410;2022-07-17T12:06:24;3.50;;;3.20;;
20988;SDS011;10653;47.052;15.410;2022-07-17T12:08:51;2.70;;;2.50;;
20988;SDS011;10653;47.052;15.410;2022-07-17T12:11:17;2.57;;;2.37;;
20988;SDS011;10653;47.052;15.410;2022-07-17T12:13:44;3.80;;;2.60;;
20988;SDS011;10653;47.052;15.410;2022-07-17T12:16:18;2.87;;;2.53;;
20988;SDS011;10653;47.052;15.410;2022-07-17T12:18:53;4.23;;;2.93;;
20988;SDS011;10653;47.052;15.410;2022-07-17T12:21:20;2.73;;;2.23;;
20988;SDS011;10653;47.052;15.410;2022-07-17T12:23:54;2.90;;;2.57;;
20988;SDS011;10653;47.052;15.410;2022-07-17T12:26:22;3.70;;;2.90;;
20988;SDS011;10653;47.052;15.410;2022-07-17T12:28:48;2.87;;;2.67;;
20988;SDS011;10653;47.052;15.410;2022-07-17T12:31:14;3.47;;;2.60;;
20988;SDS011;10653;47.052;15.410;2022-07-17T12:33:40;4.90;;;2.43;;
20988;SDS011;10653;47.052;15.410;2022-07-17T12:36:07;3.83;;;2.87;;
20988;SDS011;10653;47.052;15.410;2022-07-17T12:38:33;4.17;;;2.20;;
20988;SDS011;10653;47.052;15.410;2022-07-17T12:40:59;3.50;;;2.40;;
20988;SDS011;10653;47.052;15.410;2022-07-17T12:43:25;6.27;;;2.77;;
20988;SDS011;10653;47.052;15.410;2022-07-17T12:45:51;2.57;;;2.37;;
20988;SDS011;10653;47.052;15.410;2022-07-17T12:48:17;2.60;;;2.40;;
20988;SDS011;10653;47.052;15.410;2022-07-17T12:50:43;2.57;;;2.33;;
20988;SDS011;10653;47.052;15.410;2022-07-17T12:53:09;2.87;;;2.67;;
20988;SDS011;10653;47.052;15.410;2022-07-17T12:55:35;2.83;;;2.50;;
20988;SDS011;10653;47.052;15.410;2022-07-17T12:58:02;2.27;;;2.07;;
20988;SDS011;10653;47.052;15.410;2022-07-17T13:00:28;2.50;;;2.30;;
20988;SDS011;10653;47.052;15.410;2022-07-17T13:02:54;3.00;;;2.10;;
20988;SDS011;10653;47.052;15.410;2022-07-17T13:05:20;3.93;;;2.50;;
20988;SDS011;10653;47.052;15.410;2022-07-17T13:07:46;4.10;;;2.77;;
20988;SDS011;10653;47.052;15.410;2022-07-17T13:10:12;2.50;;;2.20;;
20988;SDS011;10653;47.052;15.410;2022-07-17T13:12:38;2.30;;;2.10;;
20988;SDS011;10653;47.052;15.410;2022-07-17T13:15:04;3.43;;;2.70;;
20988;SDS011;10653;47.052;15.410;2022-07-17T13:17:31;4.20;;;2.47;;
20988;SDS011;10653;47.052;15.410;2022-07-17T13:19:57;3.70;;;2.57;;
20988;SDS011;10653;47.052;15.410;2022-07-17T13:22:23;6.83;;;2.60;;
20988;SDS011;10653;47.052;15.410;2022-07-17T13:24:49;2.83;;;2.30;;
20988;SDS011;10653;47.052;15.410;2022-07-17T13:27:15;3.73;;;2.40;;
20988;SDS011;10653;47.052;15.410;2022-07-17T13:29:41;2.73;;;2.30;;
20988;SDS011;10653;47.052;15.410;2022-07-17T13:32:07;6.50;;;2.50;;
20988;SDS011;10653;47.052;15.410;2022-07-17T13:34:33;4.43;;;3.07;;
20988;SDS011;10653;47.052;15.410;2022-07-17T13:36:59;3.13;;;2.83;;
20988;SDS011;10653;47.052;15.410;2022-07-17T13:39:25;3.03;;;2.80;;
20988;SDS011;10653;47.052;15.410;2022-07-17T13:41:51;5.13;;;3.43;;
20988;SDS011;10653;47.052;15.410;2022-07-17T13:44:17;3.33;;;2.63;;
20988;SDS011;10653;47.052;15.410;2022-07-17T13:46:43;4.33;;;2.57;;
20988;SDS011;10653;47.052;15.410;2022-07-17T13:49:09;3.77;;;2.40;;
20988;SDS011;10653;47.052;15.410;2022-07-17T13:51:35;3.50;;;2.67;;
20988;SDS011;10653;47.052;15.410;2022-07-17T13:54:01;2.93;;;2.63;;
20988;SDS011;10653;47.052;15.410;2022-07-17T13:56:27;2.73;;;2.53;;
20988;SDS011;10653;47.052;15.410;2022-07-17T13:58:53;3.40;;;2.43;;
20988;SDS011;10653;47.052;15.410;2022-07-17T14:01:19;3.67;;;3.07;;
20988;SDS011;10653;47.052;15.410;2022-07-17T14:03:46;3.60;;;3.30;;
20988;SDS011;10653;47.052;15.410;2022-07-17T14:06:12;3.03;;;2.83;;
20988;SDS011;10653;47.052;15.410;2022-07-17T14:08:39;2.93;;;2.63;;
20988;SDS011;10653;47.052;15.410;2022-07-17T14:11:05;4.00;;;2.90;;
20988;SDS011;10653;47.052;15.410;2022-07-17T14:13:31;2.90;;;2.60;;
20988;SDS011;10653;47.052;15.410;2022-07-17T14:15:57;3.30;;;2.90;;
20988;SDS011;10653;47.052;15.410;2022-07-17T14:18:23;3.53;;;2.87;;
20988;SDS011;10653;47.052;15.410;2022-07-17T14:20:49;2.80;;;2.43;;
20988;SDS011;10653;47.052;15.410;2022-07-17T14:23:16;3.30;;;2.80;;
20988;SDS011;10653;47.052;15.410;2022-07-17T14:25:42;2.87;;;2.67;;
20988;SDS011;10653;47.052;15.410;2022-07-17T14:28:08;3.17;;;2.50;;
20988;SDS011;10653;47.052;15.410;2022-07-17T14:30:35;2.80;;;2.50;;
20988;SDS011;10653;47.052;15.410;2022-07-17T14:33:01;3.40;;;3.10;;
20988;SDS011;10653;47.052;15.410;2022-07-17T14:35:27;2.90;;;2.70;;
20988;SDS011;10653;47.052;15.410;2022-07-17T14:37:53;2.80;;;2.50;;
20988;SDS011;10653;47.052;15.410;2022-07-17T14:40:19;2.70;;;2.40;;
20988;SDS011;10653;47.052;15.410;2022-07-17T14:42:45;2.70;;;2.50;;